createdAt,value
2023-01-01T00:00:42.446Z,50.13
2023-01-01T00:03:44.270Z,37.97
2023-01-01T00:06:46.248Z,36.17
2023-01-01T00:10:06.168Z,42.03
2023-01-01T00:13:07.857Z,33.00
2023-01-01T00:16:10.814Z,31.60
2023-01-01T00:19:12.528Z,35.93
2023-01-01T00:22:52.612Z,34.70
2023-01-01T00:25:35.675Z,50.57
2023-01-01T00:28:37.376Z,57.40
2023-01-01T00:31:39.093Z,56.77
2023-01-01T00:34:40.747Z,60.90
2023-01-01T00:37:46.658Z,55.27
2023-01-01T00:40:48.449Z,57.40
2023-01-01T00:43:50.182Z,58.37
2023-01-01T00:46:51.735Z,54.27
2023-01-01T00:49:53.437Z,55.13
2023-01-01T00:52:55.046Z,53.27
2023-01-01T00:55:56.824Z,47.30
2023-01-01T00:59:01.110Z,53.53
2023-01-01T01:02:03.741Z,50.80
2023-01-01T01:05:06.010Z,42.97
2023-01-01T01:08:07.656Z,38.17
2023-01-01T01:11:19.732Z,41.53
2023-01-01T01:14:21.452Z,43.63
2023-01-01T01:17:23.143Z,38.40
2023-01-01T01:20:24.881Z,36.00
2023-01-01T01:23:26.467Z,37.33
2023-01-01T01:26:29.532Z,40.17
2023-01-01T01:29:31.339Z,39.67
2023-01-01T01:32:32.968Z,37.13
2023-01-01T01:35:34.674Z,41.20
2023-01-01T01:38:36.444Z,31.57
2023-01-01T01:41:38.087Z,32.27
2023-01-01T01:44:45.708Z,35.67
2023-01-01T01:47:59.924Z,31.87
2023-01-01T01:51:01.722Z,30.40
2023-01-01T01:54:05.470Z,22.37
2023-01-01T01:57:09.017Z,26.37
2023-01-01T02:00:12.017Z,21.47
2023-01-01T02:03:20.132Z,26.57
2023-01-01T02:06:21.833Z,32.43
2023-01-01T02:09:23.404Z,34.87
2023-01-01T02:12:26.362Z,29.77
2023-01-01T02:15:29.996Z,29.60
2023-01-01T02:18:51.827Z,24.93
2023-01-01T02:22:03.171Z,22.27
2023-01-01T02:25:07.612Z,24.03
2023-01-01T02:28:21.493Z,19.73
2023-01-01T02:31:28.035Z,16.00
2023-01-01T02:34:32.064Z,18.40
2023-01-01T02:37:33.827Z,12.83
2023-01-01T02:40:37.175Z,19.13
2023-01-01T02:43:39.541Z,9.40
2023-01-01T02:46:41.166Z,14.60
2023-01-01T02:49:57.780Z,14.07
2023-01-01T02:52:59.406Z,10.40
2023-01-01T02:56:19.817Z,11.03
2023-01-01T02:59:48.285Z,13.80
2023-01-01T03:03:08.864Z,8.73
2023-01-01T03:06:27.161Z,14.90
2023-01-01T03:09:40.971Z,19.17
2023-01-01T03:12:45.817Z,16.97
2023-01-01T03:16:03.739Z,16.10
2023-01-01T03:19:11.443Z,15.37
2023-01-01T03:22:16.310Z,20.27
2023-01-01T03:25:22.224Z,14.47
2023-01-01T03:28:29.962Z,18.30
2023-01-01T03:31:32.018Z,14.00
2023-01-01T03:34:39.244Z,15.77
2023-01-01T03:37:41.603Z,13.67
2023-01-01T03:40:44.215Z,13.10
2023-01-01T03:43:49.650Z,9.83
2023-01-01T03:46:51.503Z,9.57
2023-01-01T03:49:53.231Z,9.20
2023-01-01T03:52:59.739Z,9.13
2023-01-01T03:56:10.219Z,8.77
2023-01-01T03:59:16.480Z,9.73
2023-01-01T04:02:20.361Z,10.63
2023-01-01T04:05:23.095Z,13.43
2023-01-01T04:08:25.040Z,9.97
2023-01-01T04:11:46.909Z,10.13
2023-01-01T04:14:48.582Z,13.53
2023-01-01T04:17:50.285Z,13.80
2023-01-01T04:20:51.980Z,12.37
2023-01-01T04:23:53.656Z,14.00
2023-01-01T04:26:56.385Z,13.37
2023-01-01T04:29:58.003Z,15.03
2023-01-01T04:32:59.591Z,14.70
2023-01-01T04:36:06.192Z,14.67
2023-01-01T04:39:08.042Z,14.43
2023-01-01T04:42:09.709Z,14.63
2023-01-01T04:45:15.277Z,16.80
2023-01-01T04:48:17.134Z,14.37
2023-01-01T04:51:20.046Z,18.53
2023-01-01T04:54:21.720Z,17.43
2023-01-01T04:57:23.515Z,17.80
2023-01-01T05:00:25.191Z,13.53
2023-01-01T05:03:26.979Z,14.90
2023-01-01T05:06:29.160Z,13.73
2023-01-01T05:09:30.880Z,17.83
2023-01-01T05:12:33.577Z,16.00
2023-01-01T05:15:36.070Z,16.20
2023-01-01T05:18:38.414Z,17.07
2023-01-01T05:21:40.882Z,14.17
2023-01-01T05:24:42.548Z,12.80
2023-01-01T05:28:01.048Z,10.27
2023-01-01T05:31:05.646Z,12.40
2023-01-01T05:37:07.719Z,16.30
2023-01-01T05:40:09.660Z,17.50
2023-01-01T05:43:11.348Z,17.67
2023-01-01T05:46:23.477Z,16.30
2023-01-01T05:49:25.184Z,16.93
2023-01-01T05:52:27.225Z,16.33
2023-01-01T05:55:29.140Z,10.87
2023-01-01T05:58:31.472Z,13.53
2023-01-01T06:01:38.789Z,14.07
2023-01-01T06:04:45.024Z,19.30
2023-01-01T06:07:48.834Z,18.17
2023-01-01T06:10:57.430Z,14.43
2023-01-01T06:13:59.606Z,15.03
2023-01-01T06:17:01.244Z,16.63
2023-01-01T06:20:02.877Z,15.83
2023-01-01T06:23:04.555Z,14.53
2023-01-01T06:26:13.670Z,17.90
2023-01-01T06:29:15.234Z,13.20
2023-01-01T06:32:16.895Z,13.17
2023-01-01T06:35:18.509Z,16.60
2023-01-01T06:38:21.411Z,14.13
2023-01-01T06:41:23.716Z,14.80
2023-01-01T06:44:25.343Z,14.10
2023-01-01T06:47:27.032Z,9.50
2023-01-01T06:50:28.629Z,14.40
2023-01-01T06:53:30.257Z,15.70
2023-01-01T06:56:32.208Z,20.03
2023-01-01T06:59:33.840Z,18.43
2023-01-01T07:02:35.632Z,14.97
2023-01-01T07:05:37.489Z,12.43
2023-01-01T07:08:39.036Z,21.57
2023-01-01T07:11:40.740Z,16.13
2023-01-01T07:14:42.344Z,21.73
2023-01-01T07:17:43.895Z,20.60
2023-01-01T07:20:48.774Z,20.20
2023-01-01T07:23:50.399Z,20.60
2023-01-01T07:26:51.971Z,23.17
2023-01-01T07:29:53.556Z,21.90
2023-01-01T07:32:55.739Z,23.67
2023-01-01T07:35:57.408Z,22.07
2023-01-01T07:38:59.033Z,24.47
2023-01-01T07:42:03.761Z,24.13
2023-01-01T07:45:08.353Z,24.57
2023-01-01T07:48:13.669Z,25.00
2023-01-01T07:51:18.563Z,26.97
2023-01-01T07:54:20.205Z,25.43
2023-01-01T07:57:21.809Z,30.20
2023-01-01T08:00:23.427Z,27.23
2023-01-01T08:03:25.129Z,27.93
2023-01-01T08:06:26.789Z,24.17
2023-01-01T08:09:28.520Z,33.03
2023-01-01T08:12:30.259Z,21.90
2023-01-01T08:15:32.175Z,22.17
2023-01-01T08:18:33.878Z,21.30
2023-01-01T08:21:35.456Z,20.13
2023-01-01T08:24:37.260Z,20.77
2023-01-01T08:27:38.922Z,16.93
2023-01-01T08:30:40.563Z,16.87
2023-01-01T08:33:42.213Z,16.70
2023-01-01T08:36:43.867Z,16.57
2023-01-01T08:39:48.822Z,18.53
2023-01-01T08:42:50.465Z,20.43
2023-01-01T08:45:52.094Z,39.53
2023-01-01T08:48:53.869Z,88.70
2023-01-01T08:51:55.437Z,35.57
2023-01-01T08:54:56.982Z,45.10
2023-01-01T08:57:58.615Z,35.43
2023-01-01T09:01:00.321Z,51.57
2023-01-01T09:04:02.038Z,38.03
2023-01-01T09:07:03.734Z,37.80
2023-01-01T09:10:05.688Z,62.20
2023-01-01T09:13:07.281Z,41.17
2023-01-01T09:16:08.911Z,32.43
2023-01-01T09:19:10.654Z,50.17
2023-01-01T09:22:12.582Z,46.87
2023-01-01T09:25:14.275Z,40.23
2023-01-01T09:28:18.172Z,40.37
2023-01-01T09:31:23.619Z,65.50
2023-01-01T09:34:25.320Z,34.70
2023-01-01T09:37:27.253Z,65.53
2023-01-01T09:40:34.373Z,36.03
2023-01-01T09:43:46.417Z,48.47
2023-01-01T09:46:48.712Z,55.43
2023-01-01T09:49:51.085Z,44.77
2023-01-01T09:52:56.829Z,37.73
2023-01-01T09:55:59.511Z,34.93
2023-01-01T09:59:01.286Z,29.13
2023-01-01T10:02:21.979Z,33.37
2023-01-01T10:05:42.279Z,41.17
2023-01-01T10:08:43.853Z,40.40
2023-01-01T10:11:54.852Z,37.10
2023-01-01T10:15:02.183Z,40.93
2023-01-01T10:18:08.992Z,37.77
2023-01-01T10:21:14.784Z,29.80
2023-01-01T10:24:37.325Z,22.07
2023-01-01T10:27:47.300Z,26.80
2023-01-01T10:30:49.942Z,21.57
2023-01-01T10:33:51.841Z,35.93
2023-01-01T10:36:54.898Z,14.70
2023-01-01T10:39:56.466Z,11.43
2023-01-01T10:42:59.531Z,10.80
2023-01-01T10:46:02.514Z,12.20
2023-01-01T10:49:14.091Z,9.80
2023-01-01T10:52:15.743Z,7.10
2023-01-01T10:55:21.577Z,23.27
2023-01-01T10:58:37.297Z,11.07
2023-01-01T11:01:38.973Z,7.97
2023-01-01T11:04:40.697Z,5.80
2023-01-01T11:07:42.947Z,6.90
2023-01-01T11:10:50.207Z,8.23
2023-01-01T11:13:52.988Z,13.03
2023-01-01T11:16:55.448Z,6.27
2023-01-01T11:20:05.560Z,16.17
2023-01-01T11:23:26.103Z,8.00
2023-01-01T11:26:27.931Z,14.47
2023-01-01T11:29:29.665Z,5.37
2023-01-01T11:32:35.076Z,53.93
2023-01-01T11:35:47.031Z,6.73
2023-01-01T11:38:50.755Z,11.27
2023-01-01T11:41:56.495Z,9.53
2023-01-01T11:45:07.140Z,14.57
2023-01-01T11:48:17.360Z,18.13
2023-01-01T11:51:32.059Z,8.23
2023-01-01T11:54:37.392Z,7.20
2023-01-01T11:57:41.585Z,7.60
2023-01-01T12:00:43.203Z,4.33
2023-01-01T12:03:56.638Z,5.40
2023-01-01T12:06:58.309Z,7.23
2023-01-01T12:10:01.545Z,5.40
2023-01-01T12:13:07.625Z,9.07
2023-01-01T12:16:12.733Z,6.37
2023-01-01T12:19:23.714Z,6.03
2023-01-01T12:22:25.802Z,7.23
2023-01-01T12:25:33.458Z,37.03
2023-01-01T12:28:41.115Z,13.10
2023-01-01T12:32:02.993Z,15.67
2023-01-01T12:35:21.502Z,18.27
2023-01-01T12:38:47.359Z,11.00
2023-01-01T12:41:52.927Z,9.27
2023-01-01T12:45:13.150Z,6.23
2023-01-01T12:48:30.685Z,8.40
2023-01-01T12:51:39.454Z,11.50
2023-01-01T12:54:57.017Z,12.03
2023-01-01T12:58:08.422Z,8.50
2023-01-01T13:01:12.869Z,8.70
2023-01-01T13:04:16.596Z,6.17
2023-01-01T13:07:23.218Z,14.07
2023-01-01T13:10:31.193Z,9.80
2023-01-01T13:13:32.934Z,9.33
2023-01-01T13:16:53.836Z,11.13
2023-01-01T13:20:18.691Z,9.00
2023-01-01T13:23:33.662Z,14.13
2023-01-01T13:26:36.130Z,9.73
2023-01-01T13:29:43.153Z,15.00
2023-01-01T13:33:23.383Z,8.17
2023-01-01T13:36:27.002Z,8.43
2023-01-01T13:39:53.024Z,14.70
2023-01-01T13:42:59.022Z,14.47
2023-01-01T13:46:13.801Z,12.30
2023-01-01T13:49:19.043Z,14.90
2023-01-01T13:52:38.953Z,18.50
2023-01-01T13:56:00.822Z,20.37
2023-01-01T13:59:05.055Z,15.90
2023-01-01T14:02:15.839Z,13.83
2023-01-01T14:05:20.600Z,8.23
2023-01-01T14:08:29.839Z,12.40
2023-01-01T14:11:31.475Z,15.73
2023-01-01T14:14:34.321Z,17.43
2023-01-01T14:17:35.934Z,18.30
2023-01-01T14:20:41.043Z,19.10
2023-01-01T14:23:50.272Z,18.37
2023-01-01T14:26:54.818Z,23.73
2023-01-01T14:29:56.556Z,25.33
2023-01-01T14:32:59.246Z,14.47
2023-01-01T14:36:01.969Z,27.97
2023-01-01T14:39:03.648Z,31.60
2023-01-01T14:42:06.942Z,43.07
2023-01-01T14:45:14.302Z,41.30
2023-01-01T14:48:19.868Z,66.80
2023-01-01T14:51:26.648Z,69.80
2023-01-01T14:54:38.856Z,70.83
2023-01-01T14:57:40.511Z,68.93
2023-01-01T15:00:42.159Z,79.10
2023-01-01T15:03:57.144Z,82.53
2023-01-01T15:07:00.265Z,70.20
2023-01-01T15:10:03.188Z,71.17
2023-01-01T15:13:06.333Z,77.87
2023-01-01T15:16:18.551Z,80.87
2023-01-01T15:19:23.307Z,74.00
2023-01-01T15:22:31.323Z,66.27
2023-01-01T15:25:36.295Z,69.93
2023-01-01T15:28:38.558Z,62.93
2023-01-01T15:31:44.805Z,67.57
2023-01-01T15:34:50.732Z,64.23
2023-01-01T15:37:54.507Z,66.63
2023-01-01T15:40:56.174Z,63.50
2023-01-01T15:44:08.354Z,54.87
2023-01-01T15:47:14.190Z,67.37
2023-01-01T15:50:31.003Z,67.27
2023-01-01T15:53:38.377Z,54.13
2023-01-01T15:56:40.398Z,64.13
2023-01-01T15:59:43.616Z,46.07
2023-01-01T16:02:45.457Z,51.50
2023-01-01T16:05:48.004Z,60.87
2023-01-01T16:08:49.656Z,54.60
2023-01-01T16:11:55.533Z,55.63
2023-01-01T16:14:57.103Z,58.33
2023-01-01T16:17:59.123Z,52.73
2023-01-01T16:21:01.387Z,60.57
2023-01-01T16:24:03.090Z,69.07
2023-01-01T16:27:04.688Z,59.70
2023-01-01T16:30:06.491Z,57.17
2023-01-01T16:33:12.863Z,47.23
2023-01-01T16:36:14.418Z,54.67
2023-01-01T16:39:16.055Z,50.73
2023-01-01T16:42:17.860Z,72.10
2023-01-01T16:45:19.513Z,64.13
2023-01-01T16:48:21.156Z,64.97
2023-01-01T16:51:24.292Z,62.47
2023-01-01T16:54:25.909Z,62.90
2023-01-01T16:57:27.574Z,55.17
2023-01-01T17:00:29.153Z,45.00
2023-01-01T17:03:30.764Z,50.77
2023-01-01T17:06:32.482Z,57.97
2023-01-01T17:09:34.054Z,57.23
2023-01-01T17:12:35.685Z,54.27
2023-01-01T17:15:37.563Z,37.53
2023-01-01T17:19:13.350Z,59.37
2023-01-01T17:22:01.196Z,60.40
2023-01-01T17:25:02.871Z,47.50
2023-01-01T17:28:04.624Z,33.90
2023-01-01T17:31:08.379Z,32.27
2023-01-01T17:34:14.396Z,34.73
2023-01-01T17:37:16.398Z,36.90
2023-01-01T17:40:18.089Z,28.47
2023-01-01T17:43:19.915Z,49.27
2023-01-01T17:46:26.234Z,30.03
2023-01-01T17:49:28.355Z,32.80
2023-01-01T17:52:30.026Z,25.00
2023-01-01T17:55:31.597Z,21.20
2023-01-01T17:58:35.478Z,22.97
2023-01-01T18:01:37.597Z,26.70
2023-01-01T18:04:39.514Z,26.60
2023-01-01T18:07:41.215Z,31.00
2023-01-01T18:10:42.789Z,39.50
2023-01-01T18:13:44.342Z,34.37
2023-01-01T18:16:46.013Z,45.10
2023-01-01T18:19:47.707Z,37.93
2023-01-01T18:22:52.952Z,23.03
2023-01-01T18:25:59.326Z,35.33
2023-01-01T18:29:01.670Z,33.33
2023-01-01T18:32:03.767Z,24.53
2023-01-01T18:35:06.571Z,27.30
2023-01-01T18:38:10.983Z,24.23
2023-01-01T18:41:15.532Z,26.27
2023-01-01T18:44:19.308Z,25.17
2023-01-01T18:47:20.999Z,27.20
2023-01-01T18:50:25.069Z,27.37
2023-01-01T18:53:28.850Z,31.00
2023-01-01T18:56:31.624Z,32.13
2023-01-01T18:59:33.433Z,27.13
2023-01-01T19:02:38.202Z,37.37
2023-01-01T19:05:40.856Z,37.77
2023-01-01T19:08:42.413Z,36.07
2023-01-01T19:11:44.412Z,37.47
2023-01-01T19:14:48.265Z,32.57
2023-01-01T19:17:49.955Z,31.43
2023-01-01T19:21:14.798Z,33.03
2023-01-01T19:24:21.864Z,44.23
2023-01-01T19:27:24.135Z,39.37
2023-01-01T19:30:25.849Z,41.20
2023-01-01T19:33:27.999Z,41.37
2023-01-01T19:36:29.651Z,51.13
2023-01-01T19:39:32.072Z,49.03
2023-01-01T19:42:33.657Z,43.37
2023-01-01T19:45:35.352Z,42.63
2023-01-01T19:48:36.977Z,33.17
2023-01-01T19:51:40.487Z,31.60
2023-01-01T19:54:42.110Z,27.90
2023-01-01T19:57:43.811Z,21.73
2023-01-01T20:00:45.598Z,34.67
2023-01-01T20:03:56.858Z,33.20
2023-01-01T20:06:59.066Z,37.17
2023-01-01T20:10:00.631Z,40.23
2023-01-01T20:13:02.306Z,32.67
2023-01-01T20:16:05.343Z,39.97
2023-01-01T20:19:07.000Z,41.50
2023-01-01T20:22:11.632Z,40.73
2023-01-01T20:25:13.256Z,27.97
2023-01-01T20:28:33.395Z,33.17
2023-01-01T20:31:35.275Z,26.10
2023-01-01T20:34:36.956Z,40.10
2023-01-01T20:37:38.699Z,38.10
2023-01-01T20:40:40.463Z,32.23
2023-01-01T20:43:42.038Z,23.13
2023-01-01T20:46:45.526Z,29.13
2023-01-01T20:49:47.170Z,22.20
2023-01-01T20:52:48.920Z,23.13
2023-01-01T20:55:50.539Z,33.67
2023-01-01T20:58:57.538Z,27.13
2023-01-01T21:02:01.154Z,24.50
2023-01-01T21:05:04.797Z,33.93
2023-01-01T21:08:06.428Z,32.73
2023-01-01T21:11:08.012Z,27.53
2023-01-01T21:14:09.641Z,23.97
2023-01-01T21:17:19.528Z,21.60
2023-01-01T21:20:21.185Z,27.43
2023-01-01T21:23:25.750Z,29.27
2023-01-01T21:26:30.883Z,34.70
2023-01-01T21:29:33.066Z,33.03
2023-01-01T21:32:41.627Z,28.00
2023-01-01T21:35:43.621Z,23.23
2023-01-01T21:38:45.999Z,21.77
2023-01-01T21:41:47.549Z,18.33
2023-01-01T21:44:50.830Z,21.37
2023-01-01T21:47:52.418Z,26.23
2023-01-01T21:50:54.182Z,28.43
2023-01-01T21:54:06.283Z,26.33
2023-01-01T21:57:16.943Z,28.67
2023-01-01T22:00:19.375Z,24.30
2023-01-01T22:03:20.956Z,29.03
2023-01-01T22:06:22.579Z,27.37
2023-01-01T22:09:24.155Z,27.73
2023-01-01T22:12:32.374Z,25.10
2023-01-01T22:15:40.888Z,23.43
2023-01-01T22:18:43.111Z,26.83
2023-01-01T22:21:45.643Z,23.30
2023-01-01T22:24:55.219Z,23.73
2023-01-01T22:27:57.234Z,20.57
2023-01-01T22:30:59.646Z,25.77
2023-01-01T22:34:02.180Z,28.63
2023-01-01T22:37:12.141Z,24.73
2023-01-01T22:40:24.333Z,23.53
2023-01-01T22:43:30.413Z,23.40
2023-01-01T22:46:37.002Z,17.10
2023-01-01T22:49:40.423Z,21.47
2023-01-01T22:52:42.154Z,23.77
2023-01-01T22:55:45.951Z,23.93
2023-01-01T22:58:50.367Z,22.03
2023-01-01T23:01:57.306Z,19.87
2023-01-01T23:04:58.966Z,20.97
2023-01-01T23:08:00.635Z,21.43
2023-01-01T23:11:02.677Z,22.33
2023-01-01T23:14:22.902Z,25.47
2023-01-01T23:17:24.509Z,23.17
2023-01-01T23:20:26.178Z,23.57
2023-01-01T23:23:28.918Z,24.43
2023-01-01T23:26:30.874Z,22.43
2023-01-01T23:29:33.415Z,25.67
2023-01-01T23:32:35.847Z,25.03
2023-01-01T23:35:37.498Z,22.23
2023-01-01T23:38:39.271Z,27.53
2023-01-01T23:41:40.887Z,24.40
2023-01-01T23:44:42.518Z,23.87
2023-01-01T23:47:44.133Z,18.50
2023-01-01T23:50:46.428Z,20.27
2023-01-01T23:53:48.076Z,20.17
2023-01-01T23:56:49.685Z,20.63
2023-01-01T23:59:51.331Z,25.13
